CheckWX is a tool to help pilots better visualize weather data.  It is not intended as a substitute for an official pre-flight weather briefing.

20:53:02 UTC

LPLA TAF
Lajes Field Airport
Lajes, Portugal
TAF LPLA 221703Z 2218/2318 28012KT 9999 FEW015 SCT025 TEMPO 2218/2220 29015G25KT BECMG 2223/2301 VRB05KT BECMG 2308/2310 23015KT TEMPO 2310/2318 24018G30KT

Nov-22@
18:00 UTC

Nov-22 @ 18:00 UTC

Nov-22@
23:00 UTC

Nov-22 @ 23:00 UTC

TAF LPLA 221703Z 2218/2318 28012KT 9999 FEW015 SCT025
Wind
  • 280° at 12 KTS
Cloud Levels
  • Few at 1,500' AGL
  • Scattered at 2,500' AGL

Nov-22@
18:00 UTC

Nov-22 @ 18:00 UTC

Nov-22@
20:00 UTC

Nov-22 @ 20:00 UTC

TEMPO 2218/2220 29015G25KT

Expired

Wind
  • 290° at 15 KTS
  • {Gusting to 25 KTS

Nov-22@
23:00 UTC

Nov-22 @ 23:00 UTC

Nov-23@
08:00 UTC

Nov-23 @ 08:00 UTC

BECMG 2223/2301 VRB05KT

Becoming

Becoming Conditions expected by Sat, Nov 23, 2019 @ 01:00 UTC

Wind
  • Variable at 5 KTS
Cloud Levels
  • Few at 1,500' AGL
  • Scattered at 2,500' AGL

Nov-23@
08:00 UTC

Nov-23 @ 08:00 UTC

Nov-23@
18:00 UTC

Nov-23 @ 18:00 UTC

BECMG 2308/2310 23015KT

Becoming

Becoming Conditions expected by Sat, Nov 23, 2019 @ 10:00 UTC

Wind
  • 230° at 15 KTS
Cloud Levels
  • Few at 1,500' AGL
  • Scattered at 2,500' AGL

Nov-23@
10:00 UTC

Nov-23 @ 10:00 UTC

Nov-23@
18:00 UTC

Nov-23 @ 18:00 UTC

TEMPO 2310/2318 24018G30KT

Temporary

Temporary Changes expected for less than half the time period

Wind
  • 240° at 18 KTS
  • {Gusting to 30 KTS